Time;durP1;ratioP1;P1;durP2;ratioP2;P2;SDS_P1;SDS_P2;PMS_P1;PMS_P2;Temp;Humidity;BMP_temperature;BMP_pressure;BME280_temperature;BME280_humidity;BME280_pressure;Samples;Min_cycle;Max_cycle;Signal;HPM_P1;HPM_P2
2021/11/27 00:01:37;;;;;;;1.40;1.40;;;4.30;99.90;;;;;;4873508;29;20185;-84
2021/11/27 00:04:03;;;;;;;1.30;1.20;;;3.70;99.90;;;;;;4873735;29;20249;-85
2021/11/27 00:06:29;;;;;;;1.65;1.65;;;4.00;99.90;;;;;;4872451;29;20178;-84
2021/11/27 00:08:56;;;;;;;1.60;1.60;;;4.20;99.90;;;;;;4873648;29;20754;-84
2021/11/27 00:11:23;;;;;;;1.30;1.23;;;3.60;99.90;;;;;;4873572;29;20419;-85
2021/11/27 00:13:49;;;;;;;2.15;2.05;;;4.30;99.90;;;;;;4872038;29;20170;-85
2021/11/27 00:16:14;;;;;;;1.60;1.60;;;4.20;99.90;;;;;;4872863;29;20184;-86
2021/11/27 00:18:40;;;;;;;1.83;1.83;;;4.20;99.90;;;;;;4871979;29;20434;-84
2021/11/27 00:21:09;;;;;;;3.27;1.80;;;4.20;99.90;;;;;;4871841;29;20241;-85
2021/11/27 00:23:37;;;;;;;2.17;2.08;;;5.90;99.90;;;;;;4873067;29;20256;-85
2021/11/27 00:26:06;;;;;;;1.90;1.80;;;4.20;99.90;;;;;;4873826;29;20486;-86
2021/11/27 00:28:32;;;;;;;1.50;1.50;;;4.30;99.90;;;;;;4872746;29;20213;-84
2021/11/27 00:31:06;;;;;;;1.45;1.45;;;4.20;99.90;;;;;;4874302;29;20439;-85
2021/11/27 00:33:32;;;;;;;1.40;1.40;;;3.80;99.90;;;;;;4877264;29;20236;-86
2021/11/27 00:35:57;;;;;;;1.75;1.75;;;3.70;99.90;;;;;;4878936;29;20177;-86
2021/11/27 00:38:24;;;;;;;1.70;1.40;;;4.40;99.90;;;;;;4877131;29;20174;-86
2021/11/27 00:40:50;;;;;;;1.92;1.83;;;3.60;99.90;;;;;;4872735;29;20177;-86
2021/11/27 00:43:17;;;;;;;3.13;1.85;;;4.40;99.90;;;;;;4874016;29;20173;-86
2021/11/27 00:45:45;;;;;;;1.95;1.95;;;3.80;99.90;;;;;;4871964;29;20185;-85
2021/11/27 00:48:13;;;;;;;1.38;1.38;;;4.30;99.90;;;;;;4872596;29;20227;-85
2021/11/27 00:50:47;;;;;;;1.60;1.60;;;4.30;99.90;;;;;;4872175;29;20181;-84
2021/11/27 00:53:13;;;;;;;1.85;1.70;;;4.40;99.90;;;;;;4873615;29;20181;-86
2021/11/27 00:55:39;;;;;;;1.10;1.10;;;4.70;99.90;;;;;;4873496;29;20173;-84
2021/11/27 00:58:06;;;;;;;1.38;1.38;;;4.00;99.90;;;;;;4873841;29;20352;-85
2021/11/27 01:00:38;;;;;;;1.42;1.42;;;3.80;99.90;;;;;;4874529;29;20212;-86
2021/11/27 01:03:06;;;;;;;1.52;1.52;;;4.10;99.90;;;;;;4873912;29;20177;-85
2021/11/27 01:05:34;;;;;;;1.45;1.45;;;4.90;99.90;;;;;;4876072;29;20651;-86
2021/11/27 01:08:00;;;;;;;1.50;1.50;;;3.80;99.90;;;;;;4876225;29;20219;-84
2021/11/27 01:10:29;;;;;;;1.90;1.90;;;4.40;99.90;;;;;;4876926;29;20707;-85
2021/11/27 01:12:55;;;;;;;1.60;1.60;;;3.90;99.90;;;;;;4875247;29;20449;-84
2021/11/27 01:15:25;;;;;;;1.23;1.23;;;4.30;99.90;;;;;;4879518;29;20194;-85
2021/11/27 01:17:51;;;;;;;1.33;1.33;;;4.30;99.90;;;;;;4877461;29;20667;-85
2021/11/27 01:20:20;;;;;;;1.50;1.50;;;4.20;99.90;;;;;;4877699;29;20660;-84
2021/11/27 01:22:46;;;;;;;1.20;1.20;;;3.90;99.90;;;;;;4876631;29;20220;-85
2021/11/27 01:25:11;;;;;;;1.37;1.37;;;4.60;99.90;;;;;;4875674;29;20209;-85
2021/11/27 01:27:37;;;;;;;1.40;1.40;;;4.30;99.90;;;;;;4876226;29;20679;-85
2021/11/27 01:30:07;;;;;;;1.63;1.63;;;3.80;99.90;;;;;;4877702;29;20197;-86
2021/11/27 01:32:33;;;;;;;1.40;1.40;;;;;;;;;;4877353;29;20174;-85
2021/11/27 01:34:58;;;;;;;1.30;1.30;;;4.40;99.90;;;;;;4876549;29;20178;-85
2021/11/27 01:37:24;;;;;;;1.23;1.23;;;7.00;99.90;;;;;;4876153;29;20180;-85
2021/11/27 01:39:50;;;;;;;1.17;1.17;;;4.30;99.90;;;;;;4876560;29;20177;-86
2021/11/27 01:42:16;;;;;;;1.52;1.52;;;4.40;99.90;;;;;;4883627;29;20202;-86
2021/11/27 01:44:42;;;;;;;1.50;1.50;;;3.20;99.90;;;;;;4878997;29;20181;-86
2021/11/27 01:47:08;;;;;;;1.47;1.43;;;3.50;99.90;;;;;;4877351;29;20418;-85
2021/11/27 01:49:34;;;;;;;1.17;1.17;;;4.50;99.90;;;;;;4876612;29;20207;-85
2021/11/27 01:51:59;;;;;;;2.20;1.50;;;7.70;99.90;;;;;;4877837;29;20193;-86
2021/11/27 01:54:26;;;;;;;1.43;1.43;;;3.80;99.90;;;;;;4882502;29;20421;-86
2021/11/27 01:56:55;;;;;;;1.52;1.52;;;4.30;99.90;;;;;;4876032;29;20409;-83
2021/11/27 01:59:22;;;;;;;1.70;1.67;;;4.70;99.90;;;;;;4874629;29;20233;-85
2021/11/27 02:01:48;;;;;;;1.30;1.20;;;5.00;99.90;;;;;;4875747;29;20173;-85
2021/11/27 02:04:14;;;;;;;1.08;1.08;;;3.80;99.90;;;;;;4875418;29;20173;-85
2021/11/27 02:06:42;;;;;;;1.63;1.52;;;4.50;99.90;;;;;;4875161;29;20222;-85
2021/11/27 02:09:13;;;;;;;1.75;1.73;;;3.30;99.90;;;;;;4875285;29;20217;-84
2021/11/27 02:11:39;;;;;;;1.70;1.70;;;4.20;99.90;;;;;;4873921;29;20174;-84
2021/11/27 02:14:06;;;;;;;1.40;1.40;;;3.60;99.90;;;;;;4873812;29;20589;-84
2021/11/27 02:16:33;;;;;;;1.23;1.23;;;4.20;99.90;;;;;;4873645;29;20418;-84
2021/11/27 02:18:59;;;;;;;1.40;1.40;;;3.90;99.90;;;;;;4875039;29;20596;-86
2021/11/27 02:21:26;;;;;;;1.63;1.63;;;3.60;99.90;;;;;;4875229;29;20236;-84
2021/11/27 02:23:53;;;;;;;1.27;1.27;;;3.60;99.90;;;;;;4874332;29;20920;-85
2021/11/27 02:26:24;;;;;;;1.75;1.75;;;3.30;99.90;;;;;;4877472;29;20174;-85
2021/11/27 02:28:57;;;;;;;1.50;1.50;;;3.90;99.90;;;;;;4875259;29;20240;-85
2021/11/27 02:31:24;;;;;;;1.70;1.70;;;3.60;99.90;;;;;;4876429;29;20505;-85
2021/11/27 02:33:52;;;;;;;1.50;1.50;;;4.00;99.90;;;;;;4876137;29;20173;-85
2021/11/27 02:36:18;;;;;;;1.50;1.50;;;4.00;99.90;;;;;;4874804;29;20177;-86
2021/11/27 02:38:44;;;;;;;1.92;1.88;;;3.90;99.90;;;;;;4875989;29;20191;-86
2021/11/27 02:41:10;;;;;;;1.70;1.70;;;4.10;99.90;;;;;;4877365;29;20189;-86
2021/11/27 02:43:36;;;;;;;1.50;1.40;;;4.10;99.90;;;;;;4875727;29;20237;-85
2021/11/27 02:46:02;;;;;;;1.88;1.70;;;4.10;99.90;;;;;;4876186;29;20225;-85
2021/11/27 02:48:29;;;;;;;1.80;1.80;;;4.30;99.90;;;;;;4873282;29;20217;-85
2021/11/27 02:50:54;;;;;;;1.33;1.33;;;4.30;99.90;;;;;;4873878;29;20665;-84
2021/11/27 02:53:20;;;;;;;1.60;1.60;;;5.30;99.90;;;;;;4874958;29;20361;-83
2021/11/27 02:55:46;;;;;;;2.00;2.00;;;3.50;99.90;;;;;;4874746;29;20624;-83
2021/11/27 02:58:12;;;;;;;1.93;1.83;;;4.20;99.90;;;;;;4875046;29;20645;-83
2021/11/27 03:00:38;;;;;;;1.67;1.67;;;4.20;99.90;;;;;;4873209;29;20441;-84
2021/11/27 03:03:04;;;;;;;1.33;1.33;;;4.30;99.90;;;;;;4873547;29;20265;-83
2021/11/27 03:05:31;;;;;;;1.40;1.40;;;4.20;99.90;;;;;;4873294;29;20230;-84
2021/11/27 03:07:56;;;;;;;1.55;1.55;;;5.60;99.90;;;;;;4875348;29;20217;-85
2021/11/27 03:10:22;;;;;;;1.47;1.47;;;6.20;99.90;;;;;;4873995;29;20178;-84
2021/11/27 03:12:49;;;;;;;2.00;1.90;;;6.30;99.90;;;;;;4873572;29;20182;-83
2021/11/27 03:15:18;;;;;;;1.40;1.40;;;3.80;99.90;;;;;;4874280;29;20161;-84
2021/11/27 03:17:46;;;;;;;1.70;1.70;;;5.90;99.90;;;;;;4874050;29;20189;-84
2021/11/27 03:20:13;;;;;;;1.95;1.95;;;4.40;99.90;;;;;;4874330;29;20181;-84
2021/11/27 03:22:40;;;;;;;1.70;1.60;;;;;;;;;;4875340;29;20742;-85
2021/11/27 03:25:07;;;;;;;2.25;2.25;;;4.40;99.90;;;;;;4872578;29;20269;-85
2021/11/27 03:27:33;;;;;;;2.03;2.03;;;4.40;99.90;;;;;;4871767;29;20327;-85
2021/11/27 03:29:59;;;;;;;1.60;1.60;;;4.30;99.90;;;;;;4874531;29;20557;-84
2021/11/27 03:32:25;;;;;;;2.13;1.85;;;3.60;99.90;;;;;;4872830;29;20201;-85
2021/11/27 03:34:51;;;;;;;2.93;2.93;;;4.70;99.90;;;;;;4873599;29;20177;-84
2021/11/27 03:37:18;;;;;;;1.92;1.83;;;4.20;99.90;;;;;;4873807;29;20502;-85
2021/11/27 03:39:45;;;;;;;2.40;2.30;;;5.00;99.90;;;;;;4875663;29;20261;-85
2021/11/27 03:42:15;;;;;;;2.10;2.10;;;4.40;99.90;;;;;;4872521;29;20178;-83
2021/11/27 03:44:42;;;;;;;2.08;2.08;;;4.40;99.90;;;;;;4889496;29;20173;-84
2021/11/27 03:47:08;;;;;;;2.50;2.40;;;4.40;99.90;;;;;;4891584;29;20173;-84
2021/11/27 03:49:35;;;;;;;4.13;3.92;;;4.40;99.90;;;;;;4891678;29;20204;-85
2021/11/27 03:52:02;;;;;;;4.10;3.95;;;4.30;99.90;;;;;;4890931;29;20173;-85
2021/11/27 03:54:28;;;;;;;7.00;6.55;;;4.30;99.90;;;;;;4890978;29;20201;-84
2021/11/27 03:56:54;;;;;;;5.43;5.13;;;4.00;99.90;;;;;;4893576;29;20165;-85
2021/11/27 03:59:20;;;;;;;4.70;4.45;;;3.50;99.90;;;;;;4893941;29;20473;-84
2021/11/27 04:01:47;;;;;;;4.20;4.00;;;3.70;99.90;;;;;;4893450;29;20650;-84
2021/11/27 04:04:13;;;;;;;4.25;4.07;;;3.20;99.90;;;;;;4891703;29;20181;-83
2021/11/27 04:06:39;;;;;;;3.85;3.55;;;3.30;99.90;;;;;;4892633;29;20168;-84
2021/11/27 04:09:07;;;;;;;3.92;3.83;;;3.60;99.90;;;;;;4892178;29;20321;-83
2021/11/27 04:11:33;;;;;;;3.50;3.38;;;3.10;99.90;;;;;;4890532;29;20220;-85
2021/11/27 04:13:59;;;;;;;3.40;3.30;;;3.40;99.90;;;;;;4890369;29;20714;-84
2021/11/27 04:16:25;;;;;;;3.40;3.20;;;4.80;99.90;;;;;;4891732;29;20651;-84
2021/11/27 04:18:50;;;;;;;4.23;4.03;;;2.90;99.90;;;;;;4890111;29;20184;-84
2021/11/27 04:21:19;;;;;;;3.60;3.50;;;3.40;99.90;;;;;;4890306;29;20193;-83
2021/11/27 04:23:45;;;;;;;3.05;2.95;;;3.90;99.90;;;;;;4892068;29;20169;-83
2021/11/27 04:26:10;;;;;;;2.45;2.45;;;3.20;99.90;;;;;;4890616;29;20173;-83
2021/11/27 04:28:37;;;;;;;2.87;2.70;;;3.30;99.90;;;;;;4890248;29;20236;-86
2021/11/27 04:31:03;;;;;;;4.03;3.92;;;3.10;99.90;;;;;;4890676;29;20667;-85
2021/11/27 04:33:28;;;;;;;2.40;2.33;;;3.00;99.90;;;;;;4890146;29;20256;-85
2021/11/27 04:35:55;;;;;;;4.10;3.90;;;3.20;99.90;;;;;;4891730;29;20421;-84
2021/11/27 04:38:22;;;;;;;3.75;3.28;;;3.00;99.90;;;;;;4889794;29;20435;-84
2021/11/27 04:40:48;;;;;;;6.13;2.80;;;2.90;99.90;;;;;;4891327;29;20346;-84
2021/11/27 04:43:14;;;;;;;2.78;2.67;;;3.20;99.90;;;;;;4890747;29;20243;-85
2021/11/27 04:45:40;;;;;;;3.13;3.03;;;2.60;99.90;;;;;;4890826;29;20267;-85
2021/11/27 04:48:06;;;;;;;4.05;3.78;;;2.90;99.90;;;;;;4890293;29;20216;-86
2021/11/27 04:50:32;;;;;;;2.93;2.77;;;2.10;99.90;;;;;;4891863;29;20272;-84
2021/11/27 04:52:59;;;;;;;3.30;3.20;;;3.20;99.90;;;;;;4891736;29;20497;-84
2021/11/27 04:55:25;;;;;;;4.22;3.63;;;3.10;99.90;;;;;;4890827;29;20228;-84
2021/11/27 04:57:50;;;;;;;4.23;3.93;;;2.90;99.90;;;;;;4890972;29;20342;-83
2021/11/27 05:00:26;;;;;;;3.23;3.13;;;3.00;99.90;;;;;;4891522;29;20173;-84
2021/11/27 05:02:52;;;;;;;4.65;4.35;;;3.00;99.90;;;;;;4891527;29;20168;-85
2021/11/27 05:05:18;;;;;;;3.50;3.33;;;2.80;99.90;;;;;;4890685;29;20208;-83
2021/11/27 05:07:44;;;;;;;4.40;4.10;;;3.00;99.90;;;;;;4890963;29;20313;-84
2021/11/27 05:10:11;;;;;;;2.93;2.83;;;2.90;99.90;;;;;;4892325;29;20180;-84
2021/11/27 05:12:37;;;;;;;5.00;4.28;;;2.80;99.90;;;;;;4890790;29;20509;-85
2021/11/27 05:15:04;;;;;;;3.38;3.28;;;3.00;99.90;;;;;;4890454;29;20647;-84
2021/11/27 05:17:30;;;;;;;4.63;4.32;;;1.10;99.90;;;;;;4890015;29;20644;-85
2021/11/27 05:19:56;;;;;;;4.10;3.90;;;2.90;99.90;;;;;;4893023;29;20187;-84
2021/11/27 05:22:21;;;;;;;4.50;4.10;;;2.40;99.90;;;;;;4890904;29;20203;-84
2021/11/27 05:24:47;;;;;;;5.03;4.73;;;4.80;99.90;;;;;;4887768;29;20583;-84
2021/11/27 05:27:15;;;;;;;5.40;5.00;;;3.10;99.90;;;;;;4888101;29;20538;-84
2021/11/27 05:29:41;;;;;;;5.50;5.00;;;2.90;99.90;;;;;;4889817;29;20209;-84
2021/11/27 05:32:19;;;;;;;4.30;4.00;;;2.70;99.90;;;;;;4889909;29;20172;-83
2021/11/27 05:34:45;;;;;;;3.88;3.58;;;5.90;99.90;;;;;;4889660;29;20180;-85
2021/11/27 05:37:11;;;;;;;4.63;4.30;;;2.50;99.90;;;;;;4890847;29;20217;-86
2021/11/27 05:39:37;;;;;;;4.90;4.60;;;3.10;99.90;;;;;;4889932;29;20187;-86
2021/11/27 05:42:02;;;;;;;5.47;5.07;;;3.20;99.90;;;;;;4890875;29;20268;-85
2021/11/27 05:44:28;;;;;;;4.53;4.23;;;3.20;99.90;;;;;;4893075;29;20744;-84
2021/11/27 05:46:54;;;;;;;5.37;5.03;;;2.90;99.90;;;;;;4890476;29;20170;-86
2021/11/27 05:49:19;;;;;;;5.60;5.20;;;3.20;99.90;;;;;;4891591;29;20698;-85
2021/11/27 05:51:45;;;;;;;7.20;6.60;;;3.10;99.90;;;;;;4894690;29;20267;-85
2021/11/27 05:54:14;;;;;;;6.97;6.30;;;2.80;99.90;;;;;;4895100;29;20547;-85
2021/11/27 05:56:40;;;;;;;8.18;7.40;;;3.20;99.90;;;;;;4895157;29;20431;-84
2021/11/27 05:59:05;;;;;;;7.43;6.73;;;3.00;99.90;;;;;;4893733;29;20311;-84
2021/11/27 06:01:32;;;;;;;7.47;6.87;;;3.60;99.90;;;;;;4893725;29;20256;-84
2021/11/27 06:03:57;;;;;;;8.80;6.53;;;3.20;99.90;;;;;;4894765;29;20627;-84
2021/11/27 06:06:23;;;;;;;8.07;7.33;;;3.60;99.90;;;;;;4894658;29;20200;-84
2021/11/27 06:08:49;;;;;;;9.40;8.17;;;3.30;99.90;;;;;;4894290;29;20321;-85
2021/11/27 06:11:14;;;;;;;9.27;7.60;;;3.00;99.90;;;;;;4901409;29;20196;-81
2021/11/27 06:13:40;;;;;;;8.40;7.53;;;3.40;99.90;;;;;;4900382;29;20173;-85
2021/11/27 06:16:14;;;;;;;9.90;8.73;;;3.40;99.90;;;;;;4897499;29;20537;-85
2021/11/27 06:18:40;;;;;;;8.15;7.35;;;3.50;99.90;;;;;;4895559;29;20196;-82
2021/11/27 06:21:06;;;;;;;11.60;8.97;;;2.90;99.90;;;;;;4894627;29;20193;-85
2021/11/27 06:23:32;;;;;;;8.20;7.40;;;3.20;99.90;;;;;;4892852;29;20177;-85
2021/11/27 06:25:58;;;;;;;10.35;8.70;;;3.40;99.90;;;;;;4893039;29;20181;-84
2021/11/27 06:28:24;;;;;;;9.60;7.73;;;;;;;;;;4893396;29;20221;-84
2021/11/27 06:30:50;;;;;;;9.30;8.25;;;3.50;99.90;;;;;;4894507;29;20179;-84
2021/11/27 06:33:16;;;;;;;7.20;6.60;;;3.50;99.90;;;;;;4894303;29;20647;-84
2021/11/27 06:35:42;;;;;;;9.88;7.18;;;2.30;99.90;;;;;;4892607;29;20169;-84
2021/11/27 06:38:08;;;;;;;9.23;7.68;;;3.30;99.90;;;;;;4892631;29;20168;-83
2021/11/27 06:40:35;;;;;;;7.80;6.90;;;3.40;99.90;;;;;;4892573;29;20185;-84
2021/11/27 06:43:01;;;;;;;10.60;7.95;;;3.40;99.90;;;;;;4892581;29;20643;-84
2021/11/27 06:45:28;;;;;;;7.28;6.65;;;3.40;99.90;;;;;;4892932;29;20180;-83
2021/11/27 06:47:55;;;;;;;8.65;7.20;;;3.40;99.90;;;;;;4893960;29;20204;-85
2021/11/27 06:50:20;;;;;;;10.43;8.38;;;3.40;99.90;;;;;;4894519;29;20737;-83
2021/11/27 06:52:46;;;;;;;10.63;8.27;;;4.30;99.90;;;;;;4893875;29;20180;-84
2021/11/27 06:55:12;;;;;;;8.07;6.03;;;3.50;99.90;;;;;;4892916;29;20954;-84
2021/11/27 06:57:38;;;;;;;11.63;8.30;;;3.10;99.90;;;;;;4893631;29;20232;-84
2021/11/27 07:00:05;;;;;;;9.30;7.90;;;3.40;99.90;;;;;;4892178;29;20188;-82
2021/11/27 07:02:30;;;;;;;14.68;9.63;;;3.40;99.90;;;;;;4892487;29;20958;-83
2021/11/27 07:04:59;;;;;;;12.80;9.67;;;3.10;99.90;;;;;;4892907;29;20224;-83
2021/11/27 07:07:24;;;;;;;16.88;9.20;;;3.40;99.90;;;;;;4891814;29;20215;-83
2021/11/27 07:09:51;;;;;;;13.87;10.27;;;3.30;99.90;;;;;;4892043;29;20248;-83
2021/11/27 07:12:17;;;;;;;10.75;9.25;;;6.20;99.90;;;;;;4893380;29;20177;-84
2021/11/27 07:14:43;;;;;;;16.53;9.90;;;3.10;99.90;;;;;;4892757;29;20684;-83
2021/11/27 07:17:08;;;;;;;15.17;11.13;;;4.10;99.90;;;;;;4888390;29;20311;-83
2021/11/27 07:19:34;;;;;;;12.70;9.20;;;2.80;99.90;;;;;;4890657;29;20864;-83
2021/11/27 07:22:00;;;;;;;12.37;10.60;;;3.80;99.90;;;;;;4892301;29;20228;-82
2021/11/27 07:24:26;;;;;;;11.90;10.52;;;3.40;99.90;;;;;;4892362;29;20486;-82
2021/11/27 07:26:52;;;;;;;11.87;9.20;;;3.40;99.90;;;;;;4891275;29;20547;-83
2021/11/27 07:29:18;;;;;;;12.10;10.60;;;;;;;;;;4893024;29;20567;-82
2021/11/27 07:31:44;;;;;;;16.90;10.85;;;;;;;;;;4913276;29;20182;-83
2021/11/27 07:34:10;;;;;;;16.00;11.33;;;3.60;99.90;;;;;;4907760;29;20180;-84
2021/11/27 07:36:37;;;;;;;15.10;10.85;;;5.20;99.90;;;;;;4891563;29;20428;-82
2021/11/27 07:39:08;;;;;;;14.53;11.00;;;3.60;99.90;;;;;;4316114;29;10001733;-83
2021/11/27 07:41:34;;;;;;;18.70;12.00;;;3.30;99.90;;;;;;4875331;29;21065;-86
2021/11/27 07:44:00;;;;;;;12.70;10.57;;;3.80;99.90;;;;;;4872368;29;20997;-84
2021/11/27 07:46:26;;;;;;;12.38;9.95;;;3.60;99.90;;;;;;4872794;29;20275;-85
2021/11/27 07:48:53;;;;;;;11.48;10.15;;;4.30;99.90;;;;;;4872550;29;20233;-85
2021/11/27 07:51:18;;;;;;;12.37;8.80;;;3.90;99.90;;;;;;4871798;29;20592;-85
2021/11/27 07:53:47;;;;;;;12.10;10.60;;;3.30;99.90;;;;;;4872927;29;20389;-86
2021/11/27 07:56:14;;;;;;;14.27;10.45;;;3.90;99.90;;;;;;4871827;29;20722;-83
2021/11/27 07:58:40;;;;;;;15.95;10.00;;;5.70;99.90;;;;;;4875011;29;20281;-82
2021/11/27 08:01:06;;;;;;;15.57;9.73;;;3.90;99.90;;;;;;4870285;29;20197;-81
2021/11/27 08:03:32;;;;;;;11.73;9.27;;;3.90;99.90;;;;;;4885224;29;20209;-85
2021/11/27 08:06:00;;;;;;;13.98;10.95;;;3.90;99.90;;;;;;4876460;29;20182;-83
2021/11/27 08:08:26;;;;;;;13.65;11.55;;;3.80;99.90;;;;;;4883785;29;20237;-84
2021/11/27 08:10:52;;;;;;;14.37;9.77;;;3.30;99.90;;;;;;4883963;29;20177;-85
2021/11/27 08:13:18;;;;;;;12.82;9.80;;;3.90;99.90;;;;;;4881019;29;20548;-85
2021/11/27 08:15:44;;;;;;;15.87;10.67;;;4.00;99.90;;;;;;4897575;29;20192;-83
2021/11/27 08:18:21;;;;;;;13.60;9.40;;;5.50;99.90;;;;;;4888420;29;20227;-86
2021/11/27 08:20:50;;;;;;;12.20;9.30;;;4.40;99.90;;;;;;4895301;29;20193;-84
2021/11/27 08:23:19;;;;;;;13.05;9.65;;;4.40;99.90;;;;;;4883793;29;20161;-83
2021/11/27 08:25:46;;;;;;;12.50;9.77;;;4.20;99.90;;;;;;4884268;29;20696;-82
2021/11/27 08:28:12;;;;;;;10.48;8.90;;;4.10;99.90;;;;;;4888147;29;20261;-82
2021/11/27 08:30:38;;;;;;;10.15;9.15;;;3.80;99.90;;;;;;4890857;29;20173;-84
2021/11/27 08:33:09;;;;;;;11.60;9.40;;;4.10;99.90;;;;;;4885172;29;20177;-84
2021/11/27 08:35:35;;;;;;;12.25;9.18;;;4.30;99.90;;;;;;4887884;29;20435;-84
2021/11/27 08:38:01;;;;;;;14.57;8.90;;;4.20;99.90;;;;;;4883777;29;20237;-85
2021/11/27 08:40:27;;;;;;;11.53;10.33;;;3.80;99.90;;;;;;4902455;29;20432;-84
2021/11/27 08:42:52;;;;;;;12.30;10.20;;;4.20;99.90;;;;;;4917961;29;20184;-85
2021/11/27 08:45:18;;;;;;;24.13;10.20;;;4.10;99.90;;;;;;4901359;29;20177;-86
2021/11/27 08:47:44;;;;;;;13.87;10.37;;;4.10;99.90;;;;;;4894215;29;20463;-83
2021/11/27 08:50:11;;;;;;;15.30;11.63;;;4.20;99.90;;;;;;4891316;29;20271;-84
2021/11/27 08:52:36;;;;;;;13.63;10.70;;;4.00;99.90;;;;;;4890547;29;20724;-84
2021/11/27 08:55:03;;;;;;;12.17;8.67;;;4.10;99.90;;;;;;4892289;29;20168;-81
2021/11/27 08:57:30;;;;;;;13.35;10.65;;;;;;;;;;4892322;29;20172;-83
2021/11/27 08:59:55;;;;;;;15.13;10.70;;;4.10;99.90;;;;;;4891735;29;20293;-83
2021/11/27 09:02:21;;;;;;;18.50;12.30;;;3.70;99.90;;;;;;4891468;29;20272;-82
2021/11/27 09:04:47;;;;;;;15.50;10.10;;;4.00;99.90;;;;;;4893012;29;20177;-84
2021/11/27 09:07:13;;;;;;;14.77;12.30;;;4.10;99.90;;;;;;4892840;29;20177;-83
2021/11/27 09:10:08;;;;;;;15.50;11.87;;;3.90;99.90;;;;;;4932088;23;20236;-88
2021/11/27 09:12:35;;;;;;;17.20;11.82;;;5.20;99.90;;;;;;4890949;29;20476;-83
2021/11/27 09:15:04;;;;;;;17.38;13.68;;;4.40;99.90;;;;;;4893407;29;20220;-85
2021/11/27 09:17:35;;;;;;;14.63;10.18;;;4.50;99.90;;;;;;4892145;29;20173;-87
2021/11/27 09:20:13;;;;;;;18.08;10.23;;;5.20;99.90;;;;;;4893888;29;20204;-88
2021/11/27 09:22:40;;;;;;;15.35;10.55;;;4.60;99.90;;;;;;4908567;29;20521;-86
2021/11/27 09:27:59;;;;;;;11.18;8.80;;;6.30;99.90;;;;;;4897237;29;20307;-85
2021/11/27 09:30:56;;;;;;;12.25;10.23;;;6.00;99.90;;;;;;4892995;29;20690;-85
2021/11/27 09:33:29;;;;;;;10.85;8.82;;;4.60;99.90;;;;;;4894968;29;20181;-86
2021/11/27 09:38:35;;;;;;;18.55;11.00;;;4.80;99.90;;;;;;4241330;26;20295;-86
2021/11/27 09:41:27;;;;;;;14.23;10.02;;;4.90;99.90;;;;;;4933185;29;20226;-85
2021/11/27 09:44:04;;;;;;;14.60;7.88;;;4.90;99.90;;;;;;4935116;29;20179;-86
2021/11/27 09:46:33;;;;;;;11.63;9.38;;;5.30;99.90;;;;;;4937204;29;20187;-83
2021/11/27 09:49:05;;;;;;;17.23;10.32;;;4.70;99.90;;;;;;4935821;29;20329;-87
2021/11/27 09:51:43;;;;;;;9.18;8.27;;;4.90;99.90;;;;;;4937939;29;20274;-84
2021/11/27 09:54:14;;;;;;;12.73;8.45;;;5.20;99.90;;;;;;4937902;29;20268;-86
2021/11/27 09:56:42;;;;;;;10.85;6.90;;;5.00;99.90;;;;;;4940156;29;20175;-86
2021/11/27 09:59:08;;;;;;;21.67;10.00;;;5.50;99.90;;;;;;4921897;29;20262;-80
2021/11/27 10:01:37;;;;;;;9.00;8.13;;;5.10;99.90;;;;;;4935489;29;20206;-77
2021/11/27 10:04:06;;;;;;;11.90;9.13;;;5.20;99.90;;;;;;4933764;29;20602;-83
2021/11/27 10:06:43;;;;;;;9.32;7.95;;;5.40;99.90;;;;;;4931630;29;20557;-83
2021/11/27 10:09:18;;;;;;;9.38;8.20;;;6.40;99.90;;;;;;4930492;29;20213;-85
2021/11/27 10:11:47;;;;;;;10.25;6.72;;;6.60;99.90;;;;;;4912708;29;20195;-86
2021/11/27 10:14:13;;;;;;;14.45;9.52;;;5.80;99.90;;;;;;4916752;29;20326;-86
2021/11/27 10:17:01;;;;;;;11.52;7.80;;;6.70;99.90;;;;;;4919896;29;20180;-83
2021/11/27 10:19:43;;;;;;;8.23;7.43;;;6.20;99.90;;;;;;4920170;29;20250;-82
2021/11/27 10:22:12;;;;;;;17.17;9.60;;;6.80;99.90;;;;;;4898478;29;20200;-85
2021/11/27 10:24:39;;;;;;;8.43;7.38;;;6.20;99.90;;;;;;4900427;29;20250;-82
2021/11/27 10:27:22;;;;;;;10.90;7.63;;;6.70;99.90;;;;;;4907995;29;20195;-81
2021/11/27 10:30:08;;;;;;;9.02;8.13;;;9.60;99.90;;;;;;4913094;29;20219;-80
2021/11/27 10:32:42;;;;;;;8.57;7.55;;;6.80;99.90;;;;;;4911133;29;20180;-79
2021/11/27 10:35:14;;;;;;;8.02;7.18;;;6.90;99.90;;;;;;4912539;29;20266;-80
2021/11/27 10:37:46;;;;;;;8.35;7.40;;;6.40;99.90;;;;;;4912036;29;20229;-80
2021/11/27 10:40:20;;;;;;;10.68;7.15;;;6.60;99.90;;;;;;4912398;29;20271;-79
2021/11/27 10:42:51;;;;;;;9.55;6.55;;;6.20;99.90;;;;;;4911946;29;20176;-80
2021/11/27 10:45:26;;;;;;;7.13;6.28;;;6.50;99.90;;;;;;4910937;29;20346;-78
2021/11/27 10:48:24;;;;;;;9.70;7.53;;;6.90;99.90;;;;;;4911820;29;20203;-79
2021/11/27 10:51:00;;;;;;;15.57;7.55;;;6.70;99.90;;;;;;4912939;29;20168;-78
2021/11/27 10:53:42;;;;;;;8.90;6.72;;;6.60;99.90;;;;;;4911314;29;20223;-78
2021/11/27 10:56:10;;;;;;;9.02;5.93;;;6.60;99.90;;;;;;4909792;29;20172;-79
2021/11/27 10:59:00;;;;;;;7.07;6.45;;;6.50;99.90;;;;;;4911995;29;20203;-80
2021/11/27 11:01:27;;;;;;;9.50;5.93;;;6.80;99.90;;;;;;4912949;29;20172;-80
2021/11/27 11:04:16;;;;;;;7.10;5.57;;;7.30;99.90;;;;;;4900881;29;20176;-83
2021/11/27 11:06:46;;;;;;;8.80;6.25;;;6.60;99.90;;;;;;4905098;29;20176;-81
2021/11/27 11:09:25;;;;;;;10.02;6.20;;;7.30;99.90;;;;;;4913700;29;20223;-80
2021/11/27 11:11:56;;;;;;;8.23;5.82;;;7.90;99.90;;;;;;4913851;29;20204;-78
2021/11/27 11:14:28;;;;;;;6.78;6.15;;;8.20;99.90;;;;;;4914041;29;20168;-79
2021/11/27 11:16:59;;;;;;;6.82;4.93;;;8.20;99.90;;;;;;4911456;29;20173;-82
2021/11/27 11:19:33;;;;;;;5.65;5.18;;;10.20;99.90;;;;;;4904409;29;20293;-79
2021/11/27 11:22:13;;;;;;;5.73;4.90;;;11.00;99.90;;;;;;4909448;29;20196;-79
2021/11/27 11:24:44;;;;;;;6.78;6.07;;;11.10;99.20;;;;;;4893153;29;20421;-79
2021/11/27 11:27:11;;;;;;;5.35;4.82;;;10.20;96.50;;;;;;4892975;29;20337;-78
2021/11/27 11:29:49;;;;;;;10.02;5.47;;;10.30;94.50;;;;;;4893042;29;20201;-81
2021/11/27 11:32:22;;;;;;;8.90;4.80;;;10.80;93.70;;;;;;4892836;29;20501;-81
2021/11/27 11:34:50;;;;;;;6.50;4.83;;;11.30;93.30;;;;;;4891611;29;20521;-80
2021/11/27 11:37:16;;;;;;;5.63;5.10;;;11.90;90.50;;;;;;4890120;29;20469;-79
2021/11/27 11:39:46;;;;;;;6.50;4.93;;;11.40;91.00;;;;;;4890465;29;20424;-80
2021/11/27 11:42:13;;;;;;;5.33;4.90;;;11.30;88.20;;;;;;4891671;29;20181;-81
2021/11/27 11:44:42;;;;;;;6.33;5.03;;;12.40;83.70;;;;;;4889912;29;20806;-80
2021/11/27 11:47:09;;;;;;;4.87;4.53;;;12.40;81.20;;;;;;4891102;29;20409;-80
2021/11/27 11:49:36;;;;;;;7.33;5.50;;;12.80;74.50;;;;;;4220157;28;10001196;-81
2021/11/27 11:52:16;;;;;;;7.90;5.43;;;12.60;72.80;;;;;;4907811;29;20548;-80
2021/11/27 11:54:43;;;;;;;8.23;4.47;;;12.00;76.20;;;;;;4907813;29;20779;-81
2021/11/27 11:57:18;;;;;;;12.30;5.10;;;12.20;74.30;;;;;;4890997;29;20436;-77
2021/11/27 11:59:44;;;;;;;5.10;4.50;;;11.90;75.50;;;;;;4906555;29;20427;-80
2021/11/27 12:02:27;;;;;;;5.97;4.37;;;12.10;77.90;;;;;;4908154;29;20416;-81
2021/11/27 12:04:58;;;;;;;4.67;4.37;;;12.80;69.60;;;;;;4907875;29;20547;-81
2021/11/27 12:07:51;;;;;;;6.23;3.90;;;12.90;66.40;;;;;;4906967;29;20507;-79
2021/11/27 12:10:21;;;;;;;3.23;3.03;;;13.00;61.70;;;;;;4907248;29;20551;-81
2021/11/27 12:13:05;;;;;;;5.43;3.57;;;12.70;61.40;;;;;;4902030;29;20428;-80
2021/11/27 12:15:45;;;;;;;6.43;3.70;;;12.40;64.30;;;;;;4906054;29;20965;-80
2021/11/27 12:18:20;;;;;;;3.90;3.00;;;12.60;60.10;;;;;;4910148;29;20408;-81
2021/11/27 12:20:49;;;;;;;5.00;3.73;;;11.30;67.80;;;;;;4910273;29;20515;-83
2021/11/27 12:23:34;;;;;;;4.40;4.00;;;10.50;77.40;;;;;;4908389;29;20424;-83
2021/11/27 12:26:10;;;;;;;11.23;8.60;;;12.30;85.70;;;;;;4909524;29;20435;-82
2021/11/27 12:29:03;;;;;;;10.13;4.75;;;11.70;89.00;;;;;;4909777;29;20282;-84
2021/11/27 12:31:48;;;;;;;4.10;3.65;;;8.90;91.50;;;;;;4892264;29;20267;-82
2021/11/27 12:34:34;;;;;;;5.93;3.80;;;8.60;93.70;;;;;;4892534;29;20183;-82
2021/11/27 12:37:00;;;;;;;4.97;4.10;;;8.40;95.40;;;;;;4899140;29;20569;-82
2021/11/27 12:39:25;;;;;;;3.83;3.50;;;8.30;96.20;;;;;;4930547;29;20193;-82
2021/11/27 12:41:53;;;;;;;8.97;4.27;;;8.40;95.10;;;;;;4930467;29;20862;-84
2021/11/27 12:44:20;;;;;;;26.42;4.20;;;8.20;95.70;;;;;;4930350;29;20179;-83
2021/11/27 12:46:55;;;;;;;9.27;4.53;;;8.50;95.10;;;;;;4930729;29;20194;-83
2021/11/27 12:49:30;;;;;;;6.38;4.07;;;8.60;91.50;;;;;;4929625;29;20242;-82
2021/11/27 12:54:44;;;;;;;7.07;2.80;;;8.00;91.70;;;;;;4929908;29;20190;-83
2021/11/27 12:57:21;;;;;;;3.17;2.95;;;9.20;91.40;;;;;;4930003;29;20167;-83
2021/11/27 13:00:11;;;;;;;3.35;3.05;;;8.90;83.10;;;;;;4930743;29;20230;-83
2021/11/27 13:03:03;;;;;;;4.85;2.72;;;8.40;84.70;;;;;;4915892;29;20174;-83
2021/11/27 13:05:34;;;;;;;5.70;2.65;;;9.40;86.30;;;;;;4916058;28;20516;-79
2021/11/27 13:08:00;;;;;;;7.18;2.40;;;8.30;86.50;;;;;;4971053;28;20296;-80
2021/11/27 13:10:46;;;;;;;2.40;2.33;;;9.00;87.40;;;;;;4952543;28;20200;-79